»·PEaware :: AAL480 KPHX-KSAN

AAL480 :: KPHX-KSAN

FLIGHT INFORMATION

Flight Status: Arrived
Operator:
American Airlines
More flights by this operator :: More flights under this callsign
Pilot: Patricio R. (14780)
Aircraft: BOEING 737-800
(B738)
More flights by this aircraft type
Origin: KPHX Phoenix Sky Harbor Intl
United States
Destination: KSAN San Diego Intl-Lindbergh
United States
More flights between these airports :: More routes between these airports
Route: +FYRBD1 MOHAK J2 HOGGZ LUCKI1
File this flight plan on PilotEdge
Remarks: PBN / A1B1C1D1S1S2 DOF / 180916 REG / N806SB EET / KZLA0020 OPR / AAL PER / C RMK / TCAS SIMBRIEF
Altitude:
(Current/Filed)
26,000ft
Speed:
(Current/Filed)
405kts
Departed: 15-Sep-18 06:31 PM
Arrived: 15-Sep-18 07:23 PM
Distance/Time
Traveled:
264nm/0:52
Distance/Time
To Go:
Arrived

Flight Plot

Page will automatically refresh every two minutes.

Flight plan parsing failed; only flown route is shown


Map Options




Map Legend


Flown Route
Filed Route
Departure Airport
Arrival Airport
Navaid (VOR, NDB)
Fix

Horizontal Profiles

Position Reports

Time Latitude Longitude Heading Altitude Ground
Speed
15-Sep-18 18:20 33.436490 -112.002418 89 1130ft 0kts
15-Sep-18 18:21 33.436490 -112.002418 89 1130ft 0kts
15-Sep-18 18:22 33.436490 -112.002418 89 1130ft 0kts
15-Sep-18 18:23 33.436490 -112.002418 89 1130ft 0kts
15-Sep-18 18:24 33.436490 -112.003002 90 1129ft 2kts
15-Sep-18 18:25 33.436489 -112.003230 89 1129ft 0kts
15-Sep-18 18:26 33.436513 -112.003140 60 1129ft 3kts
15-Sep-18 18:27 33.438960 -112.003190 311 1131ft 5kts
15-Sep-18 18:28 33.439010 -112.007385 269 1130ft 16kts
15-Sep-18 18:29 33.439019 -112.012051 270 1128ft 16kts
15-Sep-18 18:30 33.439026 -112.015143 270 1126ft 20kts
15-Sep-18 18:31 33.439041 -112.023401 270 1120ft 25kts
15-Sep-18 18:32 33.439452 -112.029630 344 1116ft 8kts
15-Sep-18 18:33 33.440881 -112.025697 90 1118ft 68kts
15-Sep-18 18:34 33.439865 -111.976630 92 2123ft 182kts
15-Sep-18 18:35 33.436492 -111.908308 92 3756ft 234kts
15-Sep-18 18:36 33.400216 -111.847092 171 6434ft 254kts
15-Sep-18 18:37 33.351870 -111.891846 266 9279ft 256kts
15-Sep-18 18:38 33.359318 -111.978475 275 11781ft 274kts
15-Sep-18 18:39 33.333219 -112.067299 232 13668ft 307kts
15-Sep-18 18:40 33.281717 -112.150313 232 16365ft 316kts
15-Sep-18 18:41 33.228901 -112.235680 232 18903ft 325kts
15-Sep-18 18:42 33.174790 -112.323151 232 21261ft 333kts
15-Sep-18 18:43 33.119090 -112.413085 233 23405ft 341kts
15-Sep-18 18:44 33.062008 -112.505098 232 25253ft 352kts
15-Sep-18 18:45 33.002182 -112.601301 232 25801ft 375kts
15-Sep-18 18:46 32.950464 -112.713723 257 25809ft 409kts
15-Sep-18 18:47 32.931672 -112.851807 259 25801ft 434kts
15-Sep-18 18:48 32.912253 -112.996666 258 25799ft 454kts
15-Sep-18 18:49 32.891852 -113.146551 258 25800ft 462kts
15-Sep-18 18:50 32.871099 -113.297320 258 25800ft 461kts
15-Sep-18 18:51 32.850201 -113.447574 258 25799ft 462kts
15-Sep-18 18:52 32.829058 -113.598127 258 25788ft 462kts
15-Sep-18 18:53 32.807757 -113.748309 257 25761ft 462kts
15-Sep-18 18:54 32.786246 -113.898585 257 25754ft 462kts
15-Sep-18 18:55 32.773697 -114.050499 266 25754ft 466kts
15-Sep-18 18:56 32.779196 -114.204694 270 25754ft 467kts
15-Sep-18 18:57 32.785638 -114.358232 270 25753ft 467kts
15-Sep-18 18:58 32.819409 -114.508123 286 25753ft 474kts
15-Sep-18 18:59 32.860865 -114.656509 285 25754ft 473kts
15-Sep-18 19:00 32.878848 -114.805189 265 25758ft 465kts
15-Sep-18 19:01 32.875012 -114.958537 265 25763ft 463kts
15-Sep-18 19:02 32.871221 -115.110947 265 25764ft 458kts
15-Sep-18 19:03 32.867398 -115.261323 265 25757ft 455kts
15-Sep-18 19:04 32.857580 -115.410633 256 25737ft 453kts
15-Sep-18 19:05 32.835222 -115.551827 255 23648ft 414kts
15-Sep-18 19:06 32.813910 -115.679482 255 21683ft 379kts
15-Sep-18 19:07 32.794309 -115.797231 255 19879ft 355kts
15-Sep-18 19:08 32.780482 -115.910211 261 18185ft 339kts
15-Sep-18 19:09 32.772427 -116.018444 261 16669ft 323kts
15-Sep-18 19:10 32.764575 -116.122685 261 15166ft 313kts
15-Sep-18 19:11 32.756845 -116.224165 261 13784ft 302kts
15-Sep-18 19:12 32.749323 -116.321925 262 12505ft 293kts
15-Sep-18 19:13 32.741797 -116.418758 262 11046ft 294kts
15-Sep-18 19:14 32.734303 -116.513791 261 9726ft 286kts
15-Sep-18 19:15 32.725423 -116.606334 261 8446ft 279kts
15-Sep-18 19:16 32.717554 -116.692295 262 7267ft 273kts
15-Sep-18 19:17 32.710549 -116.781070 263 6061ft 268kts
15-Sep-18 19:18 32.694934 -116.863248 248 5364ft 240kts
15-Sep-18 19:19 32.674395 -116.932474 263 4610ft 218kts
15-Sep-18 19:20 32.687309 -116.999960 285 3448ft 204kts
15-Sep-18 19:21 32.700098 -117.052080 286 2432ft 193kts
15-Sep-18 19:22 32.715953 -117.117191 287 1144ft 150kts
15-Sep-18 19:23 32.724922 -117.153922 287 583ft 137kts
15-Sep-18 19:24 32.734733 -117.194481 286 21ft 66kts
15-Sep-18 19:25 32.734833 -117.199156 241 20ft 5kts
15-Sep-18 19:26 32.733941 -117.200290 259 19ft 4kts
15-Sep-18 19:27 32.733914 -117.200458 259 19ft 0kts

Navigation Log

Ident Type
Flight plan parsing failed, navigation log unavailable